Terminal Aerodrome Forecast
Issued by NWS

Home | Current Version | Previous Version | Text Only | Print | Product List | Glossary Off
Versions: 1 2 3 4 5 6 7 8 9 10 11 12 13 14 15 16 17 18 19 20

000
FTUS43 KABR 231700
TAFPIR
TAF
KPIR 231726Z 2318/2418 33021G28KT 1/2SM SN OVC017
      TEMPO 2318/2321 4SM -SN
     FM232100 32015KT 4SM BR OVC015
     FM240000 33013KT P6SM OVC015
     FM241200 24006KT P6SM OVC050=

USA.gov is the U.S. government's official web portal to all federal, state and local government web resources and services.